Time;durP1;ratioP1;P1;durP2;ratioP2;P2;SDS_P1;SDS_P2;PMS_P1;PMS_P2;Temp;Humidity;BMP_temperature;BMP_pressure;BME280_temperature;BME280_humidity;BME280_pressure;Samples;Min_cycle;Max_cycle;Signal;HPM_P1;HPM_P2
2023/09/17 00:02:13;;;;;;;11.02;9.95;;;;;;;20.86;83.85;95595.91;5034775;28;20232;-83
2023/09/17 00:04:42;;;;;;;10.10;9.20;;;;;;;20.92;83.41;95585.25;5050978;28;20202;-86
2023/09/17 00:07:14;;;;;;;11.05;9.95;;;;;;;20.94;83.18;95591.06;5046197;28;20206;-87
2023/09/17 00:09:42;;;;;;;12.07;9.30;;;;;;;20.97;83.19;95590.53;5019637;28;20223;-87
2023/09/17 00:12:09;;;;;;;10.27;9.27;;;;;;;20.99;83.69;95601.56;4988075;28;20249;-86
2023/09/17 00:14:35;;;;;;;11.18;10.05;;;;;;;21.01;83.59;95607.38;5016755;28;20211;-86
2023/09/17 00:17:02;;;;;;;11.57;10.32;;;;;;;21.01;83.32;95602.13;5016117;28;20205;-87
2023/09/17 00:19:28;;;;;;;10.23;9.32;;;;;;;21.07;83.26;95600.38;5044786;28;20275;-86
2023/09/17 00:22:00;;;;;;;11.05;10.15;;;;;;;20.95;83.40;95590.03;5050485;28;20220;-84
2023/09/17 00:24:34;;;;;;;12.88;10.68;;;;;;;20.79;84.21;95606.50;5049803;28;20231;-84
2023/09/17 00:27:12;;;;;;;13.30;10.02;;;;;;;20.71;84.76;95620.03;5030452;28;20194;-85
2023/09/17 00:29:41;;;;;;;10.55;9.50;;;;;;;20.68;84.72;95621.28;5030301;28;20224;-84
2023/09/17 00:32:13;;;;;;;10.80;9.82;;;;;;;20.70;84.63;95621.06;5019942;28;20576;-85
2023/09/17 00:34:50;;;;;;;10.48;9.50;;;;;;;20.76;84.83;95621.94;5024203;28;20202;-85
2023/09/17 00:37:23;;;;;;;10.25;9.35;;;;;;;20.82;84.56;95618.34;5034825;28;20221;-85
2023/09/17 00:39:52;;;;;;;10.15;9.25;;;;;;;20.88;84.41;95610.31;5030170;28;20222;-84
2023/09/17 00:42:29;;;;;;;10.85;9.73;;;;;;;20.92;83.97;95613.25;5027164;28;20205;-85
2023/09/17 00:44:56;;;;;;;10.50;9.55;;;;;;;20.86;83.89;95611.59;5015326;28;20197;-84
2023/09/17 00:47:23;;;;;;;10.77;9.68;;;;;;;20.73;84.40;95610.13;5028733;28;20206;-85
2023/09/17 00:49:50;;;;;;;9.68;8.88;;;;;;;20.69;84.43;95603.75;5028789;28;20230;-84
2023/09/17 00:52:19;;;;;;;10.18;9.18;;;;;;;20.71;84.35;95593.84;5048374;28;20575;-84
2023/09/17 00:54:48;;;;;;;10.55;9.55;;;;;;;20.67;84.16;95595.34;5049253;28;20201;-85
2023/09/17 00:57:16;;;;;;;10.02;9.05;;;;;;;20.53;84.67;95605.34;5040466;28;20198;-84
2023/09/17 00:59:44;;;;;;;9.70;8.90;;;;;;;20.58;84.50;95604.66;5027488;28;20699;-84
2023/09/17 01:02:12;;;;;;;9.35;8.50;;;;;;;20.59;84.30;95612.25;5029745;28;20198;-84
2023/09/17 01:04:42;;;;;;;9.80;8.80;;;;;;;20.62;84.12;95606.53;5029672;28;20241;-84
2023/09/17 01:07:10;;;;;;;9.60;8.60;;;;;;;20.61;84.47;95606.75;5006638;28;20237;-84
2023/09/17 01:09:38;;;;;;;8.77;7.88;;;;;;;20.55;84.58;95610.34;5030676;28;20232;-85
2023/09/17 01:12:05;;;;;;;8.55;7.78;;;;;;;20.55;84.61;95608.53;5029805;28;20206;-85
2023/09/17 01:14:34;;;;;;;8.88;8.18;;;;;;;20.51;84.48;95596.94;5015508;28;20233;-84
2023/09/17 01:17:03;;;;;;;9.15;8.25;;;;;;;20.52;84.12;95606.38;5028698;28;20571;-84
2023/09/17 01:19:32;;;;;;;8.98;7.90;;;;;;;20.50;84.33;95611.06;5029693;28;20226;-84
2023/09/17 01:22:06;;;;;;;7.78;7.07;;;;;;;20.46;84.91;95625.63;5029322;28;20210;-84
2023/09/17 01:24:41;;;;;;;6.95;6.38;;;;;;;20.52;83.89;95605.59;5046154;28;20200;-84
2023/09/17 01:27:10;;;;;;;7.68;6.97;;;;;;;20.50;83.81;95599.81;5024589;28;20194;-84
2023/09/17 01:29:39;;;;;;;7.18;6.57;;;;;;;20.55;83.22;95586.81;5023622;28;20222;-84
2023/09/17 01:32:06;;;;;;;7.80;7.03;;;;;;;20.43;83.42;95589.50;5029269;28;20233;-84
2023/09/17 01:34:34;;;;;;;7.25;6.65;;;;;;;20.37;84.22;95600.91;5028647;28;20582;-84
2023/09/17 01:37:03;;;;;;;6.88;6.38;;;;;;;20.42;84.12;95598.38;5028684;28;20195;-85
2023/09/17 01:39:37;;;;;;;7.30;5.93;;;;;;;20.48;83.25;95592.19;5036537;28;20566;-84
2023/09/17 01:42:05;;;;;;;7.72;6.90;;;;;;;20.52;82.18;95566.34;5043345;28;20697;-85
2023/09/17 01:44:34;;;;;;;7.07;6.47;;;;;;;20.46;82.42;95569.91;5029086;28;20583;-84
2023/09/17 01:47:03;;;;;;;7.05;6.45;;;;;;;20.40;82.72;95568.28;5029010;28;20202;-83
2023/09/17 01:49:32;;;;;;;7.15;6.55;;;;;;;20.44;82.46;95566.75;5028059;28;20232;-84
2023/09/17 01:51:58;;;;;;;9.23;7.05;;;;;;;20.26;82.45;95571.16;5028858;28;20260;-84
2023/09/17 01:54:25;;;;;;;9.73;7.32;;;;;;;20.27;82.77;95577.97;5027575;28;20198;-84
2023/09/17 01:56:52;;;;;;;7.35;6.65;;;;;;;20.30;82.57;95571.47;5043653;28;20639;-84
2023/09/17 01:59:18;;;;;;;7.72;6.47;;;;;;;20.27;82.75;95571.94;5028673;28;20225;-84
2023/09/17 02:01:46;;;;;;;6.95;6.35;;;;;;;20.24;82.65;95567.97;5028827;28;20218;-84
2023/09/17 02:04:12;;;;;;;7.28;6.57;;;;;;;20.15;83.32;95566.81;5017530;28;20300;-84
2023/09/17 02:06:39;;;;;;;7.45;6.43;;;;;;;20.15;83.03;95576.47;5028577;28;20367;-84
2023/09/17 02:09:08;;;;;;;6.80;6.05;;;;;;;20.11;83.71;95588.41;5026231;28;20214;-85
2023/09/17 02:11:34;;;;;;;6.40;5.90;;;;;;;20.01;84.53;95600.25;5031476;28;20206;-85
2023/09/17 02:14:00;;;;;;;6.88;6.30;;;;;;;20.00;84.53;95598.72;5046594;28;20206;-85
2023/09/17 02:16:28;;;;;;;6.22;5.63;;;;;;;20.06;83.96;95596.94;5028680;28;20228;-84
2023/09/17 02:18:55;;;;;;;6.50;5.97;;;;;;;20.08;84.10;95607.97;5027368;28;20606;-84
2023/09/17 02:21:22;;;;;;;6.05;5.55;;;;;;;20.13;83.75;95599.44;5028801;28;20575;-85
2023/09/17 02:23:49;;;;;;;6.05;5.45;;;;;;;20.23;82.96;95587.31;5021023;28;20203;-84
2023/09/17 02:26:16;;;;;;;5.72;5.22;;;;;;;20.26;82.33;95568.53;5028072;28;20587;-84
2023/09/17 02:28:42;;;;;;;5.75;5.25;;;;;;;20.32;81.75;95558.97;5042836;28;20232;-84
2023/09/17 02:31:09;;;;;;;5.80;5.30;;;;;;;20.30;82.30;95574.09;5048367;28;20220;-84
2023/09/17 02:33:35;;;;;;;5.93;5.43;;;;;;;20.24;82.26;95567.97;5030089;28;20198;-84
2023/09/17 02:36:03;;;;;;;5.50;5.00;;;;;;;20.27;82.33;95575.34;5028376;28;20198;-84
2023/09/17 02:38:29;;;;;;;5.10;4.70;;;;;;;20.24;82.42;95581.06;5028278;28;20842;-85
2023/09/17 02:40:56;;;;;;;4.63;4.30;;;;;;;20.28;82.19;95579.56;5028080;28;20675;-84
2023/09/17 02:43:22;;;;;;;4.50;4.20;;;;;;;20.30;81.68;95564.44;5030259;28;20209;-84
2023/09/17 02:45:49;;;;;;;4.93;4.43;;;;;;;20.34;81.59;95565.53;5047850;28;20742;-85
2023/09/17 02:48:16;;;;;;;4.85;4.45;;;;;;;20.39;81.01;95569.31;5037015;28;20218;-84
2023/09/17 02:50:42;;;;;;;4.60;4.20;;;;;;;20.42;79.95;95545.25;5028314;28;20199;-84
2023/09/17 02:53:10;;;;;;;5.70;4.40;;;;;;;20.41;79.94;95539.25;5028152;28;20213;-85
2023/09/17 02:55:37;;;;;;;4.57;4.28;;;;;;;20.33;80.68;95555.31;5028020;28;20206;-84
2023/09/17 02:58:03;;;;;;;4.65;4.25;;;;;;;20.30;80.95;95580.13;5028554;28;20210;-84
2023/09/17 03:00:31;;;;;;;4.68;4.28;;;;;;;20.30;82.02;95597.63;5012252;28;20617;-84
2023/09/17 03:02:57;;;;;;;4.57;3.95;;;;;;;20.25;81.43;95589.69;5040583;28;20667;-85
2023/09/17 03:05:24;;;;;;;4.47;4.03;;;;;;;20.22;80.77;95575.25;5032330;28;20198;-83
2023/09/17 03:07:50;;;;;;;4.65;4.25;;;;;;;20.21;81.03;95573.69;5031779;28;20194;-84
2023/09/17 03:10:20;;;;;;;4.65;4.22;;;;;;;20.14;80.76;95580.91;5014370;28;20599;-85
2023/09/17 03:12:47;;;;;;;4.60;4.25;;;;;;;20.15;81.04;95581.69;5012046;28;20260;-85
2023/09/17 03:15:14;;;;;;;4.55;4.10;;;;;;;20.04;81.00;95578.09;5022072;28;20264;-84
2023/09/17 03:17:41;;;;;;;5.03;4.55;;;;;;;19.98;81.40;95586.91;5037164;28;20208;-84
2023/09/17 03:20:16;;;;;;;5.03;4.47;;;;;;;19.91;81.72;95588.84;5023559;28;20219;-84
2023/09/17 03:22:43;;;;;;;4.43;4.05;;;;;;;19.88;82.11;95597.94;5031555;28;20614;-84
2023/09/17 03:25:11;;;;;;;4.70;4.18;;;;;;;19.89;82.54;95609.19;5031102;28;20201;-84
2023/09/17 03:27:39;;;;;;;4.88;4.38;;;;;;;19.91;82.28;95621.00;5031208;28;20579;-84
2023/09/17 03:30:07;;;;;;;5.13;4.25;;;;;;;19.94;81.73;95602.25;5031139;28;20238;-84
2023/09/17 03:32:33;;;;;;;4.50;4.00;;;;;;;19.92;81.56;95600.91;5039790;28;20204;-84
2023/09/17 03:35:00;;;;;;;4.70;4.30;;;;;;;19.77;82.61;95618.91;5051326;28;20688;-84
2023/09/17 03:37:27;;;;;;;6.53;4.72;;;;;;;19.71;83.45;95640.72;5043630;28;20201;-84
2023/09/17 03:40:07;;;;;;;4.53;4.13;;;;;;;19.66;83.59;95642.22;5031046;28;20221;-84
2023/09/17 03:42:35;;;;;;;5.40;4.53;;;;;;;19.74;83.52;95632.44;5031411;28;20251;-85
2023/09/17 03:45:05;;;;;;;14.60;13.32;;;;;;;19.76;83.51;95638.22;5031135;28;20202;-84
2023/09/17 03:47:32;;;;;;;6.03;5.40;;;;;;;19.73;83.64;95639.47;5030408;28;20292;-84
2023/09/17 03:49:58;;;;;;;5.22;4.72;;;;;;;19.76;83.23;95631.19;5050719;28;20605;-84
2023/09/17 03:52:25;;;;;;;4.22;3.83;;;;;;;19.67;83.80;95640.41;5050684;28;20663;-84
2023/09/17 03:54:52;;;;;;;5.35;4.53;;;;;;;19.65;83.89;95650.28;5036353;28;20210;-84
2023/09/17 03:57:19;;;;;;;4.60;4.20;;;;;;;19.69;83.68;95646.19;5009440;28;20710;-84
2023/09/17 03:59:45;;;;;;;4.43;4.13;;;;;;;19.70;83.66;95632.09;5013085;28;20219;-84
2023/09/17 04:02:13;;;;;;;5.32;4.28;;;;;;;19.69;83.76;95648.81;5023661;28;20210;-84
2023/09/17 04:04:41;;;;;;;4.93;4.53;;;;;;;19.65;84.28;95651.06;5038131;28;20216;-84
2023/09/17 04:07:08;;;;;;;4.93;4.28;;;;;;;19.67;83.91;95648.22;5041768;28;20590;-84
2023/09/17 04:09:35;;;;;;;7.50;5.10;;;;;;;19.57;85.40;95650.66;5019231;28;20218;-84
2023/09/17 04:12:04;;;;;;;4.85;4.22;;;;;;;19.57;84.73;95661.91;5016393;28;20190;-84
2023/09/17 04:14:31;;;;;;;4.65;4.07;;;;;;;19.63;84.28;95657.56;5030484;28;20205;-84
2023/09/17 04:16:59;;;;;;;4.55;4.25;;;;;;;19.62;84.06;95651.56;5025810;28;20230;-84
2023/09/17 04:19:28;;;;;;;4.90;4.50;;;;;;;19.64;84.03;95652.09;5030571;28;20225;-84
2023/09/17 04:21:55;;;;;;;5.78;4.30;;;;;;;19.62;83.77;95648.16;5047277;28;20472;-84
2023/09/17 04:24:21;;;;;;;4.43;4.03;;;;;;;19.64;83.08;95640.84;5045621;28;20206;-84
2023/09/17 04:26:48;;;;;;;4.40;4.10;;;;;;;19.51;83.87;95638.50;5029924;28;20978;-84
2023/09/17 04:29:15;;;;;;;5.18;4.78;;;;;;;19.52;83.93;95648.72;5030524;28;20236;-84
2023/09/17 04:31:41;;;;;;;4.78;4.38;;;;;;;19.45;84.10;95655.06;5030220;28;20210;-85
2023/09/17 04:34:09;;;;;;;4.57;4.10;;;;;;;19.48;84.03;95671.06;5030055;28;20602;-84
2023/09/17 04:36:38;;;;;;;6.43;4.47;;;;;;;19.43;84.34;95667.59;5035091;28;20216;-84
2023/09/17 04:39:04;;;;;;;4.18;3.88;;;;;;;19.46;84.65;95667.09;5039962;28;20220;-84
2023/09/17 04:41:31;;;;;;;4.75;4.22;;;;;;;19.50;84.05;95658.63;5030492;28;20206;-85
2023/09/17 04:43:57;;;;;;;4.10;3.80;;;;;;;19.51;84.26;95656.78;5030215;28;20198;-84
2023/09/17 04:46:23;;;;;;;4.22;3.92;;;;;;;19.47;84.33;95666.06;5030191;28;20202;-84
2023/09/17 04:48:50;;;;;;;4.25;3.92;;;;;;;19.41;84.71;95670.41;5030500;28;20278;-83
2023/09/17 04:51:17;;;;;;;4.30;4.00;;;;;;;19.35;84.51;95673.94;5032827;28;20302;-84
2023/09/17 04:53:44;;;;;;;4.68;4.28;;;;;;;19.11;86.07;95690.63;5048039;28;20202;-83
2023/09/17 04:56:11;;;;;;;5.00;4.50;;;;;;;18.90;87.84;95713.63;5055512;28;20216;-84
2023/09/17 04:58:38;;;;;;;5.00;4.60;;;;;;;18.77;89.96;95741.75;5053412;28;20228;-83
2023/09/17 05:01:06;;;;;;;5.28;3.95;;;;;;;19.07;98.35;95844.28;5034107;28;20252;-83
2023/09/17 05:03:32;;;;;;;4.90;4.45;;;;;;;19.51;96.05;95827.34;5034217;28;20198;-83
2023/09/17 05:05:59;;;;;;;5.97;4.40;;;;;;;19.95;93.21;95794.63;5034267;28;20208;-83
2023/09/17 05:08:26;;;;;;;6.82;4.38;;;;;;;20.27;89.15;95739.31;5034904;28;20206;-85
2023/09/17 05:10:54;;;;;;;4.60;4.20;;;;;;;20.53;85.50;95685.66;5048763;28;20686;-86
2023/09/17 05:13:20;;;;;;;4.70;4.10;;;;;;;20.71;83.82;95661.88;5030189;28;20206;-84
2023/09/17 05:15:47;;;;;;;4.20;3.90;;;;;;;20.75;80.24;95583.72;5014424;28;20213;-84
2023/09/17 05:18:13;;;;;;;4.50;4.10;;;;;;;20.52;78.99;95548.03;5018323;28;20198;-83
2023/09/17 05:20:43;;;;;;;4.82;4.43;;;;;;;20.29;80.24;95575.13;5033766;28;20671;-84
2023/09/17 05:23:10;;;;;;;4.53;4.22;;;;;;;19.91;81.98;95615.00;5034376;28;20202;-84
2023/09/17 05:25:37;;;;;;;4.45;4.05;;;;;;;19.75;83.77;95654.94;5042788;28;20562;-84
2023/09/17 05:28:16;;;;;;;;;;;;;;;;;;;;;
2023/09/17 05:30:46;;;;;;;4.38;4.07;;;;;;;19.41;86.94;95716.63;5034446;28;20218;-85
2023/09/17 05:33:12;;;;;;;4.95;4.25;;;;;;;19.46;87.31;95727.16;5033311;28;20209;-85
2023/09/17 05:35:39;;;;;;;4.40;3.78;;;;;;;19.43;88.00;95743.31;5034234;28;20209;-84
2023/09/17 05:38:05;;;;;;;4.65;4.28;;;;;;;19.43;88.56;95746.72;5034675;28;20213;-84
2023/09/17 05:40:34;;;;;;;4.85;4.50;;;;;;;19.41;89.90;95768.84;5034302;28;20230;-84
2023/09/17 05:43:03;;;;;;;5.63;4.53;;;;;;;19.53;90.62;95775.69;5050684;28;20197;-85
2023/09/17 05:45:31;;;;;;;4.80;4.40;;;;;;;19.60;90.56;95786.03;5052530;28;20212;-88
2023/09/17 05:47:57;;;;;;;4.50;4.15;;;;;;;19.70;90.29;95785.44;5028317;28;20224;-85
2023/09/17 05:50:24;;;;;;;5.00;4.60;;;;;;;19.79;90.74;95784.88;5028880;28;20317;-85
2023/09/17 05:52:50;;;;;;;5.40;4.30;;;;;;;19.99;90.15;95781.91;5026983;28;20213;-89
2023/09/17 05:55:17;;;;;;;5.60;4.70;;;;;;;20.33;88.67;95767.16;5029029;28;20210;-86
2023/09/17 05:57:43;;;;;;;5.30;4.35;;;;;;;20.55;86.85;95731.50;5034462;28;20259;-86
2023/09/17 06:00:10;;;;;;;4.57;4.18;;;;;;;20.59;86.04;95723.97;5047688;28;20849;-86
2023/09/17 06:02:41;;;;;;;4.65;4.20;;;;;;;20.60;84.94;95715.84;5045843;28;20961;-87
2023/09/17 06:05:07;;;;;;;4.82;4.30;;;;;;;20.60;84.66;95707.22;5027054;28;20217;-85
2023/09/17 06:07:34;;;;;;;4.35;3.95;;;;;;;20.55;84.82;95726.25;5026844;28;20217;-85
2023/09/17 06:10:00;;;;;;;4.38;3.97;;;;;;;20.57;84.96;95732.06;5015960;28;20625;-85
2023/09/17 06:12:27;;;;;;;5.18;4.05;;;;;;;20.63;85.16;95740.75;5025594;28;20888;-91
2023/09/17 06:14:56;;;;;;;4.35;4.05;;;;;;;20.74;85.65;95739.94;5043494;28;20201;-91
2023/09/17 06:17:26;;;;;;;4.43;3.75;;;;;;;20.95;84.56;95731.38;5031756;28;20202;-91
2023/09/17 06:20:09;;;;;;;4.32;3.80;;;;;;;21.14;83.64;95707.56;5028439;28;20210;-90
2023/09/17 06:22:39;;;;;;;4.10;3.75;;;;;;;21.32;83.01;95687.19;5025457;28;20202;-89
2023/09/17 06:25:06;;;;;;;4.55;4.00;;;;;;;21.52;82.27;95676.19;5027138;28;20194;-89
2023/09/17 06:27:36;;;;;;;5.35;3.88;;;;;;;21.73;81.27;95666.75;5027349;28;20198;-89
2023/09/17 06:30:02;;;;;;;4.30;3.75;;;;;;;21.89;80.41;95649.34;5035667;28;20263;-89
2023/09/17 06:32:29;;;;;;;3.88;3.50;;;;;;;21.99;79.96;95631.91;5039479;28;20202;-90
2023/09/17 06:35:11;;;;;;;4.05;3.75;;;;;;;22.03;79.78;95630.41;5026987;28;20205;-89
2023/09/17 06:37:37;;;;;;;4.07;3.78;;;;;;;22.16;79.35;95631.81;5032016;28;20693;-89
2023/09/17 06:40:04;;;;;;;5.55;3.95;;;;;;;22.25;78.27;95605.94;5031215;28;20218;-89
2023/09/17 06:42:31;;;;;;;5.35;3.75;;;;;;;22.30;77.30;95603.38;5028463;28;20212;-90
2023/09/17 06:45:12;;;;;;;5.10;3.60;;;;;;;22.38;77.29;95582.72;5030180;28;20276;-90
2023/09/17 06:48:09;;;;;;;4.60;3.53;;;;;;;22.44;76.80;95570.44;5049276;28;20296;-89
2023/09/17 06:50:37;;;;;;;5.00;3.60;;;;;;;22.54;77.12;95588.06;5010881;28;20606;-89
2023/09/17 06:53:06;;;;;;;3.55;3.25;;;;;;;22.56;76.31;95570.25;5010333;28;20293;-90
2023/09/17 06:55:57;;;;;;;3.92;3.63;;;;;;;22.56;74.95;95549.25;5010751;28;20225;-89
2023/09/17 06:58:23;;;;;;;3.42;3.22;;;;;;;22.57;75.24;95553.47;5027478;28;20281;-88
2023/09/17 07:00:50;;;;;;;5.95;3.80;;;;;;;22.64;75.63;95554.84;5030897;28;20597;-85
2023/09/17 07:03:16;;;;;;;3.83;3.53;;;;;;;22.72;74.76;95545.69;5041403;28;20190;-86
2023/09/17 07:05:44;;;;;;;3.78;3.47;;;;;;;22.81;74.29;95538.16;5023226;28;20277;-86
2023/09/17 07:08:11;;;;;;;4.03;3.63;;;;;;;22.88;74.16;95531.66;5030992;28;20578;-84
2023/09/17 07:10:37;;;;;;;3.85;3.45;;;;;;;22.95;73.81;95526.94;5026589;28;20226;-86
2023/09/17 07:13:04;;;;;;;3.88;3.55;;;;;;;22.96;73.38;95520.63;5031473;28;20237;-87
2023/09/17 07:15:30;;;;;;;3.70;3.40;;;;;;;23.07;73.05;95518.88;5031992;28;20206;-84
2023/09/17 07:17:57;;;;;;;3.83;3.53;;;;;;;23.21;71.87;95487.66;5034960;28;20220;-85
2023/09/17 07:20:23;;;;;;;3.50;3.20;;;;;;;23.22;71.68;95484.78;5051350;28;20726;-86
2023/09/17 07:22:51;;;;;;;4.18;3.83;;;;;;;23.31;71.76;95479.78;5051372;28;20658;-85
2023/09/17 07:25:18;;;;;;;3.92;3.60;;;;;;;23.36;71.35;95479.81;5037894;28;20217;-87
2023/09/17 07:27:43;;;;;;;4.25;3.30;;;;;;;23.45;70.82;95477.47;5021722;28;20206;-86
2023/09/17 07:30:10;;;;;;;4.00;3.53;;;;;;;23.56;70.66;95461.47;5030284;28;20224;-87
2023/09/17 07:32:37;;;;;;;4.35;3.40;;;;;;;23.66;70.31;95456.25;5030631;28;20190;-87
2023/09/17 07:35:04;;;;;;;3.53;3.05;;;;;;;23.64;70.12;95445.22;5038401;28;20213;-86
2023/09/17 07:37:30;;;;;;;3.65;3.33;;;;;;;23.73;70.22;95443.63;5042341;28;20241;-87
2023/09/17 07:40:01;;;;;;;3.85;3.25;;;;;;;23.99;69.63;95449.69;5030832;28;20259;-86
2023/09/17 07:42:27;;;;;;;3.72;3.42;;;;;;;24.03;69.11;95426.28;5026697;28;20198;-84
2023/09/17 07:44:54;;;;;;;3.40;3.10;;;;;;;24.08;69.43;95429.66;5011017;28;20209;-85
2023/09/17 07:47:20;;;;;;;3.15;2.92;;;;;;;24.15;68.20;95408.34;5013691;28;20205;-87
2023/09/17 07:49:47;;;;;;;3.70;2.95;;;;;;;24.26;67.63;95390.72;5030956;28;20301;-87
2023/09/17 07:52:14;;;;;;;3.35;3.05;;;;;;;24.24;67.90;95400.75;5050294;28;20296;-86
2023/09/17 07:54:42;;;;;;;3.58;3.28;;;;;;;24.21;68.04;95409.16;5029393;28;20237;-85
2023/09/17 07:57:13;;;;;;;3.42;3.10;;;;;;;24.55;66.69;95378.53;5026902;28;20201;-84
2023/09/17 07:59:39;;;;;;;4.47;2.80;;;;;;;24.49;65.25;95319.06;5016371;28;20218;-85
2023/09/17 08:02:06;;;;;;;3.83;3.00;;;;;;;24.53;63.40;95249.03;5021269;28;20197;-84
2023/09/17 08:04:32;;;;;;;3.33;3.08;;;;;;;24.58;63.46;95253.50;5028630;28;20237;-86
2023/09/17 08:06:59;;;;;;;3.22;3.00;;;;;;;24.85;62.66;95250.41;5039450;28;20224;-87
2023/09/17 08:09:26;;;;;;;3.55;2.70;;;;;;;25.11;61.86;95221.00;5036800;28;20226;-86
2023/09/17 08:11:53;;;;;;;3.35;2.90;;;;;;;25.48;60.33;95172.16;5028804;28;20218;-85
2023/09/17 08:14:22;;;;;;;2.90;2.63;;;;;;;25.77;59.82;95138.63;5030011;28;20209;-85
2023/09/17 08:16:49;;;;;;;2.83;2.63;;;;;;;25.82;60.00;95148.31;5027440;28;20213;-87
2023/09/17 08:19:15;;;;;;;2.83;2.63;;;;;;;25.53;59.28;95132.56;5015702;28;20619;-84
2023/09/17 08:21:42;;;;;;;3.22;2.50;;;;;;;25.33;60.13;95161.78;5028122;28;20841;-86
2023/09/17 08:24:10;;;;;;;3.55;2.80;;;;;;;25.13;60.07;95160.91;5043545;28;20683;-87
2023/09/17 08:26:44;;;;;;;3.42;3.13;;;;;;;25.57;60.24;95188.16;5027966;28;20256;-88
2023/09/17 08:29:11;;;;;;;4.22;3.00;;;;;;;26.06;59.58;95167.53;5029401;28;20312;-87
2023/09/17 08:31:39;;;;;;;2.88;2.65;;;;;;;26.20;58.96;95129.88;5028826;28;20214;-87
2023/09/17 08:34:05;;;;;;;3.33;3.03;;;;;;;25.92;59.30;95118.38;5028690;28;20590;-84
2023/09/17 08:36:32;;;;;;;3.05;2.65;;;;;;;26.09;58.08;95084.38;5028449;28;20574;-86
2023/09/17 08:39:08;;;;;;;3.70;2.72;;;;;;;26.52;57.02;95053.38;5033810;28;20222;-85
2023/09/17 08:41:35;;;;;;;2.92;2.72;;;;;;;26.82;53.33;94888.28;5040318;28;20229;-86
2023/09/17 08:44:06;;;;;;;2.97;2.78;;;;;;;27.19;53.11;94847.59;5027573;28;20238;-86
2023/09/17 08:46:33;;;;;;;2.78;2.58;;;;;;;27.21;53.33;94861.31;5027138;28;20198;-85
2023/09/17 08:49:10;;;;;;;4.28;3.25;;;;;;;27.56;52.72;94872.91;5027817;28;20216;-86
2023/09/17 08:51:40;;;;;;;3.20;2.90;;;;;;;27.85;51.61;94783.34;5028381;28;20218;-87
2023/09/17 08:54:11;;;;;;;3.20;2.90;;;;;;;28.02;50.41;94742.16;5027888;28;20349;-87
2023/09/17 08:56:50;;;;;;;4.30;2.50;;;;;;;28.19;49.45;94711.22;5034711;28;20198;-87
2023/09/17 08:59:26;;;;;;;3.28;3.08;;;;;;;28.12;49.62;94688.91;5012235;28;20206;-88
2023/09/17 09:01:54;;;;;;;2.97;2.78;;;;;;;28.23;49.34;94682.28;5021331;28;20264;-86
2023/09/17 09:04:30;;;;;;;3.33;3.05;;;;;;;28.11;49.85;94716.47;5029028;28;20206;-87
2023/09/17 09:06:57;;;;;;;3.30;3.00;;;;;;;28.30;50.58;94772.59;5029216;28;20821;-89
2023/09/17 09:09:40;;;;;;;3.47;3.28;;;;;;;28.60;49.60;94723.28;5017357;28;20230;-86
2023/09/17 09:12:15;;;;;;;3.33;3.13;;;;;;;28.88;50.00;94729.84;5028942;28;20228;-86
2023/09/17 09:14:48;;;;;;;3.10;2.90;;;;;;;29.17;49.35;94728.44;5015813;28;20662;-86
2023/09/17 09:17:15;;;;;;;3.53;2.88;;;;;;;29.26;48.98;94691.28;5012694;28;20210;-87
2023/09/17 09:19:49;;;;;;;2.80;2.60;;;;;;;29.40;48.15;94658.22;5015003;28;20301;-86
2023/09/17 09:22:15;;;;;;;3.20;3.00;;;;;;;29.37;48.70;94652.72;5009571;28;20694;-84
2023/09/17 09:24:46;;;;;;;3.13;2.92;;;;;;;29.13;48.33;94632.03;5019879;28;20198;-85
2023/09/17 09:27:13;;;;;;;3.03;2.83;;;;;;;29.18;48.24;94634.53;5035409;28;20209;-85
2023/09/17 09:29:42;;;;;;;3.10;2.90;;;;;;;29.30;46.58;94557.72;5041864;28;20465;-85
2023/09/17 09:32:09;;;;;;;2.92;2.72;;;;;;;29.46;48.35;94635.69;5028819;28;20230;-85
2023/09/17 09:34:36;;;;;;;4.07;2.80;;;;;;;29.34;48.64;94674.56;5028530;28;20210;-84
2023/09/17 09:37:06;;;;;;;3.28;3.00;;;;;;;29.48;48.65;94662.69;5028705;28;20702;-86
2023/09/17 09:39:35;;;;;;;3.13;2.90;;;;;;;29.49;48.56;94669.53;5028976;28;20214;-85
2023/09/17 09:42:02;;;;;;;4.05;3.15;;;;;;;29.39;47.91;94606.25;5031613;28;20256;-84
2023/09/17 09:44:31;;;;;;;3.20;2.90;;;;;;;28.90;47.94;94625.41;5038894;28;20293;-83
2023/09/17 09:46:57;;;;;;;3.33;3.03;;;;;;;28.35;48.45;94632.13;5037781;28;20228;-84
2023/09/17 09:49:24;;;;;;;3.05;2.85;;;;;;;28.12;50.73;94741.84;5031340;28;20226;-83
2023/09/17 09:51:51;;;;;;;3.47;3.17;;;;;;;27.89;51.52;94778.22;5031812;28;20860;-84
2023/09/17 09:54:19;;;;;;;3.22;3.03;;;;;;;27.72;51.51;94778.13;5023463;28;20201;-84
2023/09/17 09:56:47;;;;;;;3.30;3.10;;;;;;;27.56;51.44;94806.78;5032122;28;20210;-83
2023/09/17 09:59:14;;;;;;;3.28;3.08;;;;;;;27.33;52.99;94858.13;5035953;28;20590;-83
2023/09/17 10:01:41;;;;;;;3.10;2.90;;;;;;;27.16;52.61;94864.84;5051335;28;20228;-83
2023/09/17 10:04:10;;;;;;;3.15;2.92;;;;;;;27.11;53.56;94898.53;5051189;28;20852;-84
2023/09/17 10:06:37;;;;;;;3.78;3.45;;;;;;;26.98;52.92;94875.56;5047140;28;20222;-84
2023/09/17 10:09:06;;;;;;;4.75;3.55;;;;;;;27.07;53.78;94902.84;5030495;28;20214;-84
2023/09/17 10:11:35;;;;;;;3.63;3.00;;;;;;;27.28;53.51;94911.13;5029560;28;20588;-84
2023/09/17 10:14:03;;;;;;;4.15;3.65;;;;;;;27.40;53.56;94921.94;5016944;28;20695;-84
2023/09/17 10:16:30;;;;;;;3.13;2.88;;;;;;;27.35;52.18;94854.09;5043195;28;20744;-84
2023/09/17 10:18:57;;;;;;;3.13;2.90;;;;;;;27.42;52.46;94864.25;5010750;28;20237;-83
2023/09/17 10:21:26;;;;;;;3.28;3.03;;;;;;;27.57;52.11;94850.72;5028417;28;20204;-86
2023/09/17 10:23:55;;;;;;;4.65;2.60;;;;;;;27.85;52.82;94881.25;5027618;28;20217;-86
2023/09/17 10:26:22;;;;;;;4.88;4.47;;;;;;;27.97;52.31;94864.03;5026675;28;20202;-86
2023/09/17 10:28:51;;;;;;;4.57;3.35;;;;;;;28.08;52.35;94837.00;5028435;28;20605;-86
2023/09/17 10:31:19;;;;;;;3.22;3.00;;;;;;;28.23;51.83;94843.00;5030543;28;20718;-86
2023/09/17 10:33:48;;;;;;;5.90;3.50;;;;;;;28.37;52.42;94860.34;5025835;28;20237;-86
2023/09/17 10:36:16;;;;;;;2.92;2.72;;;;;;;28.54;52.55;94870.19;5047572;28;20202;-86
2023/09/17 10:38:46;;;;;;;3.35;3.15;;;;;;;28.54;52.02;94855.09;5035550;28;20733;-86
2023/09/17 10:41:14;;;;;;;3.17;2.88;;;;;;;28.40;50.97;94795.38;5027603;28;20194;-86
2023/09/17 10:43:41;;;;;;;3.15;2.95;;;;;;;28.50;51.28;94816.28;5013539;28;20201;-86
2023/09/17 10:46:13;;;;;;;5.72;3.40;;;;;;;28.58;50.15;94761.78;5008063;28;20199;-87
2023/09/17 10:48:43;;;;;;;3.30;3.00;;;;;;;28.61;49.56;94706.31;5027487;28;21951;-84
2023/09/17 10:51:10;;;;;;;2.95;2.75;;;;;;;28.52;49.70;94706.28;5020268;28;20310;-85
2023/09/17 10:53:37;;;;;;;4.00;2.63;;;;;;;28.50;49.13;94642.25;5024812;28;20272;-86
2023/09/17 10:56:08;;;;;;;2.70;2.50;;;;;;;28.32;47.89;94571.06;5028138;28;20202;-86
2023/09/17 10:58:42;;;;;;;3.25;2.95;;;;;;;28.34;48.54;94632.44;5028274;28;20237;-85
2023/09/17 11:01:13;;;;;;;3.20;2.90;;;;;;;28.36;47.75;94585.25;5028751;28;20186;-83
2023/09/17 11:03:44;;;;;;;2.80;2.60;;;;;;;28.23;45.69;94467.84;5034725;28;20312;-81
2023/09/17 11:06:16;;;;;;;3.45;2.55;;;;;;;28.12;46.06;94450.69;5046107;28;20698;-83
2023/09/17 11:08:46;;;;;;;3.75;2.70;;;;;;;27.98;45.42;94431.56;5016094;28;20863;-84
2023/09/17 11:11:19;;;;;;;2.70;2.50;;;;;;;28.00;45.99;94461.16;5030933;28;20691;-84
2023/09/17 11:13:47;;;;;;;2.85;2.65;;;;;;;28.09;47.65;94584.47;5017865;28;20557;-84
2023/09/17 11:16:16;;;;;;;2.92;2.72;;;;;;;28.20;46.96;94553.19;5026464;28;20858;-83
2023/09/17 11:18:46;;;;;;;2.97;2.78;;;;;;;28.32;47.54;94571.06;5030921;28;20662;-83
2023/09/17 11:21:12;;;;;;;2.85;2.65;;;;;;;28.32;46.22;94510.16;5046745;28;20197;-84
2023/09/17 11:23:43;;;;;;;2.78;2.58;;;;;;;28.37;46.38;94523.25;5054459;28;20284;-84
2023/09/17 11:26:12;;;;;;;2.60;2.50;;;;;;;28.43;46.71;94533.38;5037938;28;20198;-83
2023/09/17 11:28:40;;;;;;;2.80;2.60;;;;;;;28.42;46.11;94491.31;5033207;28;20869;-84
2023/09/17 11:31:09;;;;;;;3.28;2.63;;;;;;;28.42;46.42;94523.09;5033699;28;20252;-84
2023/09/17 11:33:38;;;;;;;2.80;2.60;;;;;;;28.50;45.85;94499.22;5033630;28;20205;-83
2023/09/17 11:36:05;;;;;;;2.95;2.60;;;;;;;28.53;46.10;94473.97;5037822;28;20193;-83
2023/09/17 11:38:38;;;;;;;3.15;2.85;;;;;;;28.33;45.02;94453.47;5052003;28;20628;-90
2023/09/17 11:41:06;;;;;;;4.95;3.30;;;;;;;28.35;45.95;94483.84;5036271;28;20198;-87